• Join FlightAware (Why Join?)
  • Login
  • US Flag 
03:08PM EDT


 

Airport Tracker/Info


-or-


 

Live Flight TrackerFlight Track Log ✈ ASH3751 ✈ 11-Jun-2013 ✈ KORD - KALB

Flight Track Log - Related Links

Times and Time Zones

All times are in EDT time to prevent confusion due to time zone crossing. See the ASH3751 flight status page for this flight to view local times or setup timezone preferences in your user account.

Time Position Orientation Groundspeed Altitude Reporting Facility
EDT Latitude Longitude Course Direction KTS MPH feet Rate Location/Type
10:36PM 42.0333 -87.9500 86° East 210 242 2,800  Level Chicago TRACON
10:37PM 42.0833 -87.9000 37° Northeast 269 310 4,400 1,800 Climbing Chicago TRACON
10:38PM 42.1413 -87.4228 63° Northeast  Level FlightAware Approximate
10:38PM 42.1308 -87.8389 44° Northeast 269 310 6,300  Level Chicago Center
10:39PM 42.1975 -87.2576 66° East  Level FlightAware Approximate
10:39PM 42.1861 -87.7619 46° Northeast 284 327 9,000  Level Chicago Center
10:40PM 42.2528 -87.0916 66° East  Level FlightAware Approximate
10:40PM 42.2008 -87.6442 80° East 315 362 11,700  Level Chicago Center
10:41PM 42.2697 -86.9387 86° East  Level FlightAware Approximate
10:41PM 42.2219 -87.5019 79° East 324 373 14,200  Level Chicago Center
10:42PM 42.2383 -87.3719 80° East 348 400 15,900 1,980 Climbing Chicago Center
10:43PM 42.2569 -87.2314 80° East 377 434 18,300 1,860 Climbing Chicago Center
10:44PM 42.2747 -87.0897 80° East 385 443 19,800 1,380 Climbing Chicago Center
10:45PM 42.2856 -86.9458 84° East 387 445 21,200 1,320 Climbing Chicago Center
10:46PM 42.2906 -86.7958 87° East 395 455 22,600 1,440 Climbing Chicago Center
10:47PM 42.2953 -86.6400 88° East 408 470 24,200 1,560 Climbing Chicago Center
10:48PM 42.3028 -86.4561 87° East 425 489 25,800 1,500 Climbing Chicago Center
10:49PM 42.3089 -86.2922 87° East 438 504 27,300 1,320 Climbing Chicago Center
10:50PM 42.3136 -86.1278 88° East 441 507 28,600 1,260 Climbing Chicago Center
10:51PM 42.3131 -85.9575 90° East 454 522 29,900 1,080 Climbing Chicago Center
10:52PM 42.3111 -85.7814 91° East 469 540 30,900 1,080 Climbing Chicago Center
10:53PM 42.3086 -85.6031 91° East 476 548 32,100 960 Climbing Chicago Center
10:54PM 42.3061 -85.4197 91° East 486 559 32,900 840 Climbing Chicago Center
10:55PM 42.3028 -85.1969 91° East 493 567 33,900 1,020 Climbing Chicago Center
10:56PM 42.2997 -85.0103 91° East 498 573 35,100 1,020 Climbing Chicago Center
10:57PM 42.2953 -84.8261 92° East 495 570 36,000 900 Climbing Chicago Center
10:58PM 42.2917 -84.6428 91° East 491 565 37,000 480 Climbing Chicago Center
10:59PM 42.2892 -84.4581 91° East 493 567 37,000  Level Chicago Center
11:00PM 42.3053 -84.3317 80° East 478 550 37,000  Level Cleveland Center
11:01PM 42.3297 -84.1531 79° East 478 550 37,000  Level Cleveland Center
11:02PM 42.3561 -83.9692 79° East 483 556 37,000  Level Cleveland Center
11:03PM 42.3819 -83.7933 79° East 483 556 37,000  Level Cleveland Center
11:04PM 42.4078 -83.6147 79° East 483 556 37,000  Level Cleveland Center
11:05PM 42.4100 -83.4433 89° East 489 563 37,000  Level Cleveland Center
11:06PM 42.4186 -83.2581 86° East 493 567 37,000  Level Cleveland Center
11:07PM 42.4272 -83.0669 86° East 493 567 37,000  Level Cleveland Center
11:08PM 42.4308 -82.8844 88° East 493 567 37,000  Level Cleveland Center
11:09PM 42.4367 -82.6961 88° East 493 567 37,000  Level Cleveland Center
11:10PM 42.4439 -82.5161 87° East 493 567 37,000  Level Cleveland Center
11:11PM 42.4469 -82.3306 89° East 493 567 37,000  Level Cleveland Center
11:12PM 42.4539 -82.1253 87° East 493 567 37,000  Level Cleveland Center
11:13PM 42.4583 -81.9567 88° East 493 567 37,000  Level Cleveland Center
11:14PM 42.4647 -81.7542 87° East 493 567 37,000  Level Cleveland Center
11:15PM 42.4664 -81.5683 89° East 493 567 37,000  Level Cleveland Center
11:16PM 42.4719 -81.3939 87° East 494 568 37,000  Level Cleveland Center
11:17PM 42.4731 -81.2081 89° East 494 568 37,000  Level Cleveland Center
11:18PM 42.4781 -81.0167 88° East 494 568 37,000  Level Cleveland Center
11:19PM 42.4828 -80.8281 88° East 494 568 37,100  Climbing Cleveland Center
11:20PM 42.4956 -80.6422 85° East 494 568 37,000 -60 Descending Cleveland Center
11:21PM 42.5081 -80.4564 85° East 499 574 37,000  Level Cleveland Center
11:22PM 42.5203 -80.2481 85° East 499 574 37,000  Level Cleveland Center
11:23PM 42.5342 -80.0619 84° East 499 574 37,000  Level Cleveland Center
11:24PM 42.5478 -79.8758 84° East 499 574 37,000  Level Cleveland Center
11:25PM 42.5567 -79.6869 86° East 499 574 37,000  Level Cleveland Center
11:26PM 42.5678 -79.4978 85° East 499 574 37,000  Level Cleveland Center
11:27PM 42.5783 -79.3086 86° East 499 574 37,000  Level Cleveland Center
11:28PM 42.5886 -79.1194 86° East 499 574 37,000  Level Cleveland Center
11:29PM 42.5986 -78.9331 86° East 499 574 37,000  Level Cleveland Center
11:30PM 42.6081 -78.7439 86° East 499 574 37,000  Level Cleveland Center
11:31PM 42.6175 -78.5544 86° East 499 574 37,000  Level Cleveland Center
11:32PM 42.6267 -78.3681 86° East 499 574 37,000  Level Cleveland Center
11:33PM 42.6353 -78.1786 86° East 499 574 37,000  Level Cleveland Center
11:34PM 42.6436 -77.9892 87° East 499 574 37,000  Level Cleveland Center
11:35PM 42.6497 -77.7997 87° East 499 574 37,000  Level Cleveland Center
11:36PM 42.6575 -77.6103 87° East 504 580 37,000 -1,080 Level Cleveland Center
11:38PM 42.6697 -77.2953 87° East 510 587 34,100 -2,280 Descending Boston Center
11:39PM 42.6783 -77.0922 87° East 510 587 30,800 -2,580 Descending Boston Center
11:40PM 42.6839 -76.9033 88° East 499 574 29,000 -900 Descending Boston Center
11:41PM 42.6908 -76.7203 87° East 493 567 29,000  Level Boston Center
11:42PM 42.6958 -76.5311 88° East 493 567 29,000  Level Boston Center
11:43PM 42.7022 -76.3422 87° East 493 567 29,000 -60 Level Boston Center
11:44PM 42.7094 -76.1308 87° East 493 567 28,900 -960 Descending Boston Center
11:45PM 42.7133 -75.9444 88° East 493 567 26,900 -2,100 Descending Boston Center
11:46PM 42.7186 -75.7694 88° East 486 559 24,800 -2,100 Descending Boston Center
11:47PM 42.7231 -75.6086 88° East 452 520 22,800 -2,040 Descending Boston Center
11:48PM 42.7253 -75.4503 89° East 430 495 20,800 -2,040 Descending Boston Center
11:49PM 42.7314 -75.2981 87° East 409 471 18,800 -2,340 Descending Boston Center
11:50PM 42.7333 -75.1283 89° East 399 459 16,200 -2,340 Descending Boston Center
11:51PM 42.7344 -74.9869 89° East 387 445 14,200 -2,040 Descending Boston Center
11:52PM 42.7378 -74.8431 88° East 381 438 12,200 -1,620 Descending Boston Center
11:53PM 42.7386 -74.6933 90° East 395 455 11,000 -780 Descending Boston Center
11:53PM 42.7381 -74.6225 91° East 398 458 11,100  Climbing Boston Center
11:54PM 42.7394 -74.5433 89° East 395 455 11,000  Descending Boston Center
11:54PM 42.7369 -74.4444 92° East 386 444 11,100  Climbing Boston Center
11:55PM 42.7336 -74.4047 97° East 381 438 11,000 -1,020 Descending Boston Center
11:55PM 42.7183 -74.3136 103° East 334 384 10,100 -1,500 Descending Boston Center
11:56PM 42.7147 -74.2797 98° East 343 395 9,500 -1,920 Descending Boston Center
11:56PM 42.7017 -74.1917 101° East 321 369 8,200 -1,800 Descending Boston Center
11:57PM 42.6958 -74.1578 103° East 326 375 7,700 -2,220 Descending Boston Center
11:57PM 42.6761 -74.0781 109° East 317 365 6,000 -2,040 Descending Boston Center
11:58PM 42.6744 -74.0583 97° East 315 362 5,700 -2,400 Descending Boston Center
11:58PM 42.6486 -73.9644 110° East 306 352 3,600 -2,220 Descending Boston Center
11:59PM 42.6447 -73.9472 107° East 310 357 3,500 -600 Descending Boston Center
12:00AM 42.6247 -73.8678 109° East 263 303 3,000 -600 Descending Boston Center
12:00AM 42.6208 -73.8508 107° East 290 334 2,900 -1,020 Descending Boston Center
12:01AM 42.6281 -73.7833 82° East 202 232 2,000 -720 Descending Boston Center
12:02AM 42.6653 -73.7953 347° North 108 124 1,700 -300 Descending Boston Center